createdAt,value
2023-05-20T06:02:46.705Z,99.90
2023-05-20T06:25:02.547Z,99.90
2023-05-20T06:29:57.544Z,99.90
2023-05-20T06:34:51.529Z,99.90
2023-05-20T06:39:45.028Z,99.90
2023-05-20T06:44:40.256Z,99.90
2023-05-20T06:49:47.513Z,99.90
2023-05-20T06:54:43.168Z,99.90
2023-05-20T06:59:39.896Z,99.90
2023-05-20T07:04:33.873Z,99.90
2023-05-20T07:09:27.583Z,99.90
2023-05-20T07:14:21.464Z,99.90
2023-05-20T07:19:16.448Z,99.90
2023-05-20T07:24:10.212Z,99.90
2023-05-20T07:29:05.082Z,99.90
2023-05-20T07:33:59.238Z,99.90
2023-05-20T07:39:02.478Z,99.90
2023-05-20T07:44:03.181Z,99.90
2023-05-20T07:48:56.715Z,99.90
2023-05-20T07:53:50.542Z,99.90
2023-05-20T07:58:54.336Z,99.90
2023-05-20T08:03:49.403Z,99.90
2023-05-20T08:08:45.918Z,99.90
2023-05-20T08:13:47.013Z,99.90
2023-05-20T08:18:41.696Z,99.90
2023-05-20T08:23:38.760Z,99.90
2023-05-20T08:28:33.860Z,99.90
2023-05-20T08:33:28.686Z,99.90
2023-05-20T08:38:22.443Z,99.90
2023-05-20T08:43:16.989Z,99.90
2023-05-20T08:48:10.487Z,99.90
2023-05-20T08:53:05.413Z,99.90
2023-05-20T08:57:58.782Z,99.90
2023-05-20T09:02:52.168Z,99.90
2023-05-20T09:07:45.731Z,99.90
2023-05-20T09:12:40.590Z,99.90
2023-05-20T09:17:36.378Z,99.90
2023-05-20T09:22:30.722Z,99.90
2023-05-20T09:27:24.926Z,99.90
2023-05-20T09:32:24.112Z,99.90
2023-05-20T09:37:20.616Z,99.90
2023-05-20T09:42:19.982Z,99.90
2023-05-20T09:47:14.170Z,99.90
2023-05-20T09:52:10.833Z,99.90
2023-05-20T09:57:06.427Z,99.90
2023-05-20T10:01:59.974Z,99.90
2023-05-20T10:07:15.483Z,99.90
2023-05-20T10:12:18.914Z,99.90
2023-05-20T10:17:21.608Z,99.90
2023-05-20T10:22:16.584Z,99.90
2023-05-20T10:27:12.903Z,99.90
2023-05-20T10:32:06.604Z,99.90
2023-05-20T10:37:02.075Z,99.90
2023-05-20T10:42:07.467Z,99.90
2023-05-20T10:52:01.717Z,99.90
2023-05-20T10:56:57.347Z,99.90
2023-05-20T11:01:50.833Z,99.90
2023-05-20T11:06:52.390Z,99.90
2023-05-20T11:11:45.805Z,99.90
2023-05-20T11:16:41.089Z,99.20
2023-05-20T11:21:34.694Z,99.00
2023-05-20T11:26:28.038Z,98.40
2023-05-20T11:31:21.754Z,97.80
2023-05-20T11:36:27.056Z,97.70
2023-05-20T11:41:25.513Z,96.20
2023-05-20T11:46:22.694Z,95.20
2023-05-20T11:51:17.574Z,94.50
2023-05-20T11:56:10.954Z,94.60
2023-05-20T12:01:14.062Z,93.60
2023-05-20T12:06:15.372Z,94.30
2023-05-20T12:11:10.160Z,92.50
2023-05-20T12:16:04.358Z,92.20
2023-05-20T12:20:57.828Z,92.40
2023-05-20T12:25:51.250Z,91.40
2023-05-20T12:30:46.015Z,92.80
2023-05-20T12:35:40.839Z,92.50
2023-05-20T12:40:34.948Z,91.90
2023-05-20T12:45:28.611Z,91.50
2023-05-20T12:50:23.447Z,92.50
2023-05-20T12:55:16.929Z,92.70
2023-05-20T13:00:11.209Z,92.30
2023-05-20T13:05:04.769Z,93.70
2023-05-20T13:09:59.706Z,94.40
2023-05-20T13:14:53.374Z,94.70
2023-05-20T13:19:46.955Z,95.40
2023-05-20T13:24:40.326Z,95.80
2023-05-20T13:29:35.070Z,95.80
2023-05-20T13:34:28.475Z,95.60
2023-05-20T13:39:22.002Z,95.10
2023-05-20T13:44:15.784Z,95.10
2023-05-20T13:49:10.624Z,94.80
2023-05-20T13:54:03.973Z,93.60
2023-05-20T13:58:57.366Z,93.30
2023-05-20T14:03:51.087Z,94.00
2023-05-20T14:08:46.227Z,95.50
2023-05-20T14:13:39.709Z,96.40
2023-05-20T14:18:33.107Z,97.10
2023-05-20T14:23:26.492Z,97.10
2023-05-20T14:28:21.284Z,97.20
2023-05-20T14:33:14.762Z,97.30
2023-05-20T14:38:08.309Z,96.30
2023-05-20T14:43:01.811Z,95.60
2023-05-20T14:47:56.789Z,94.40
2023-05-20T14:52:50.798Z,94.40
2023-05-20T14:57:44.618Z,94.40
2023-05-20T15:02:38.221Z,95.20
2023-05-20T15:07:33.147Z,95.80
2023-05-20T15:12:26.483Z,99.00
2023-05-20T15:17:19.862Z,99.90
2023-05-20T15:22:13.223Z,99.90
2023-05-20T15:27:08.064Z,99.90
2023-05-20T15:32:01.534Z,99.90
2023-05-20T15:36:55.400Z,99.90
2023-05-20T15:41:50.156Z,99.90
2023-05-20T15:46:45.218Z,99.90
2023-05-20T15:51:39.763Z,99.90
2023-05-20T15:56:33.397Z,99.90
2023-05-20T16:01:28.510Z,99.90
2023-05-20T16:06:23.552Z,99.90
2023-05-20T16:11:17.049Z,99.90
2023-05-20T16:16:10.666Z,99.90
2023-05-20T16:21:07.370Z,99.90
2023-05-20T16:26:02.962Z,99.90
2023-05-20T16:30:56.426Z,99.90
2023-05-20T16:35:49.826Z,99.90
2023-05-20T16:40:43.248Z,99.90
2023-05-20T16:45:37.983Z,99.90
2023-05-20T16:50:31.484Z,99.90
2023-05-20T16:55:24.920Z,99.90
2023-05-20T17:00:18.566Z,99.90
2023-05-20T17:05:15.473Z,99.90
2023-05-20T17:10:11.031Z,99.90
2023-05-20T17:15:06.154Z,99.90
2023-05-20T17:19:59.545Z,99.90
2023-05-20T17:24:54.421Z,99.90
2023-05-20T17:29:48.717Z,99.90
2023-05-20T17:34:42.202Z,99.90
2023-05-20T17:39:35.763Z,99.90
2023-05-20T17:44:30.737Z,99.90
2023-05-20T17:49:24.097Z,99.90
2023-05-20T17:54:17.608Z,99.90
2023-05-20T17:59:11.038Z,99.90
2023-05-20T18:04:06.498Z,99.90
2023-05-20T18:09:00.104Z,99.90
2023-05-20T18:13:53.717Z,99.90
2023-05-20T18:18:47.157Z,99.90
2023-05-20T18:23:41.997Z,99.90
2023-05-20T18:28:35.599Z,99.90
2023-05-20T18:33:29.362Z,99.90
2023-05-20T18:38:23.379Z,99.90
2023-05-20T18:43:18.120Z,99.90
2023-05-20T18:48:15.753Z,99.90
2023-05-20T18:53:13.854Z,99.90
2023-05-20T18:58:07.278Z,99.90
2023-05-20T19:03:02.112Z,99.90
2023-05-20T19:07:55.584Z,99.90
2023-05-20T19:12:49.098Z,99.90
2023-05-20T19:17:42.655Z,99.90
2023-05-20T19:22:37.733Z,99.90
2023-05-20T19:27:31.302Z,99.90
2023-05-20T19:32:24.715Z,99.90
2023-05-20T19:37:18.119Z,99.90
2023-05-20T19:42:13.067Z,99.90
2023-05-20T19:47:07.986Z,99.90
2023-05-20T19:52:01.517Z,99.90
2023-05-20T19:56:54.882Z,99.90
2023-05-20T20:01:49.808Z,99.90
2023-05-20T20:06:43.236Z,99.90
2023-05-20T20:11:36.632Z,99.90
2023-05-20T20:16:30.522Z,99.90
2023-05-20T20:21:26.289Z,99.90
2023-05-20T20:26:22.755Z,99.90
2023-05-20T20:31:16.122Z,99.90
2023-05-20T20:36:10.071Z,99.90
2023-05-20T20:41:04.848Z,99.90
2023-05-20T20:46:00.133Z,99.90
2023-05-20T20:50:53.842Z,99.90
